Time;durP1;ratioP1;P1;durP2;ratioP2;P2;SDS_P1;SDS_P2;PMS_P1;PMS_P2;Temp;Humidity;BMP_temperature;BMP_pressure;BME280_temperature;BME280_humidity;BME280_pressure;Samples;Min_cycle;Max_cycle;Signal;HPM_P1;HPM_P2
2021/01/24 00:01:20;;;;;;;5.63;0.50;;;;;;;14.36;56.91;101248.25;5032171;28;20048;-66
2021/01/24 00:03:45;;;;;;;2.72;0.68;;;;;;;14.39;57.12;101250.06;5032690;28;20047;-65
2021/01/24 00:06:11;;;;;;;6.97;0.57;;;;;;;14.39;57.18;101235.00;5032335;28;20387;-65
2021/01/24 00:08:36;;;;;;;3.58;0.43;;;;;;;14.41;57.06;101243.00;5032246;28;20037;-65
2021/01/24 00:11:01;;;;;;;6.35;1.10;;;;;;;14.40;57.19;101242.09;5032253;28;20038;-65
2021/01/24 00:13:27;;;;;;;7.45;0.60;;;;;;;14.38;57.28;101233.22;5031710;28;20037;-65
2021/01/24 00:15:52;;;;;;;5.63;0.50;;;;;;;14.39;56.99;101237.66;5032423;28;20060;-65
2021/01/24 00:18:17;;;;;;;4.72;0.70;;;;;;;14.39;57.43;101244.75;5031845;28;20045;-64
2021/01/24 00:20:43;;;;;;;10.13;0.90;;;;;;;14.40;57.11;101219.97;5032429;28;20457;-65
2021/01/24 00:23:08;;;;;;;5.38;0.60;;;;;;;14.42;57.26;101228.84;5032272;28;20049;-65
2021/01/24 00:25:34;;;;;;;7.55;1.48;;;;;;;14.42;57.27;101218.22;5031943;28;20785;-65
2021/01/24 00:27:59;;;;;;;5.00;0.70;;;;;;;14.44;57.42;101227.09;5031704;28;20144;-65
2021/01/24 00:30:24;;;;;;;7.70;0.90;;;;;;;14.46;57.63;101223.56;5030476;28;20046;-64
2021/01/24 00:32:50;;;;;;;4.82;1.02;;;;;;;14.47;57.65;101220.03;5031419;28;20041;-65
2021/01/24 00:35:15;;;;;;;7.88;0.60;;;;;;;14.49;57.88;101209.41;5031762;28;20041;-64
2021/01/24 00:37:40;;;;;;;7.20;0.70;;;;;;;14.52;57.57;101198.78;5032296;28;20049;-65
2021/01/24 00:40:06;;;;;;;7.03;0.63;;;;;;;14.55;57.46;101209.47;5032037;28;20045;-65
2021/01/24 00:42:31;;;;;;;3.35;0.75;;;;;;;14.56;57.96;101208.59;5030655;28;20041;-65
2021/01/24 00:44:56;;;;;;;8.13;0.73;;;;;;;14.57;57.97;101199.75;5031699;28;20200;-65
2021/01/24 00:47:22;;;;;;;3.75;0.52;;;;;;;14.58;57.90;101210.34;5031623;28;20035;-65
2021/01/24 00:49:47;;;;;;;4.88;0.88;;;;;;;14.61;57.89;101209.50;5031940;28;20051;-65
2021/01/24 00:52:12;;;;;;;7.28;1.23;;;;;;;14.64;58.12;101220.13;5031628;28;20135;-65
2021/01/24 00:54:38;;;;;;;9.07;1.15;;;;;;;14.65;58.21;101228.13;5031625;28;20121;-65
2021/01/24 00:57:03;;;;;;;11.60;0.93;;;;;;;14.66;58.15;101215.72;5031556;28;20180;-65
2021/01/24 00:59:29;;;;;;;8.55;0.70;;;;;;;14.65;58.39;101212.16;5030832;28;20056;-64
2021/01/24 01:01:54;;;;;;;11.90;0.85;;;;;;;14.66;58.50;101207.75;5031589;28;20057;-65
2021/01/24 01:04:19;;;;;;;4.18;0.90;;;;;;;14.67;58.69;101204.22;5031288;28;20391;-65
2021/01/24 01:06:45;;;;;;;5.72;0.70;;;;;;;14.68;58.54;101198.91;5031437;28;20037;-65
2021/01/24 01:09:10;;;;;;;6.20;0.82;;;;;;;14.70;58.50;101193.63;5031306;28;20059;-65
2021/01/24 01:11:35;;;;;;;2.22;0.47;;;;;;;14.71;58.58;101195.38;5031161;28;20112;-65
2021/01/24 01:14:01;;;;;;;5.20;0.60;;;;;;;14.72;58.67;101186.53;5031022;28;20041;-65
2021/01/24 01:16:26;;;;;;;11.77;1.00;;;;;;;14.73;58.53;101189.19;5031277;28;20042;-65
2021/01/24 01:18:51;;;;;;;7.32;0.88;;;;;;;14.73;58.83;101196.28;5046917;28;20038;-65
2021/01/24 01:21:17;;;;;;;9.98;0.85;;;;;;;14.75;58.54;101186.56;5031027;28;20047;-65
2021/01/24 01:23:42;;;;;;;9.00;0.70;;;;;;;14.76;58.99;101188.34;5031340;28;20111;-65
2021/01/24 01:26:07;;;;;;;3.20;0.70;;;;;;;14.77;58.90;101193.63;5031613;28;20037;-65
2021/01/24 01:28:33;;;;;;;3.45;0.50;;;;;;;14.80;59.17;101187.47;5034972;28;20069;-64
2021/01/24 01:30:58;;;;;;;9.32;0.95;;;;;;;14.82;59.12;101177.72;5031089;28;20072;-65
2021/01/24 01:33:24;;;;;;;6.93;1.15;;;;;;;14.84;59.23;101175.94;5030702;28;20441;-64
2021/01/24 01:35:49;;;;;;;12.20;1.25;;;;;;;14.85;59.07;101172.41;5030728;28;20038;-65
2021/01/24 01:38:14;;;;;;;8.70;0.90;;;;;;;14.88;59.36;101171.56;5029918;28;20037;-65
2021/01/24 01:40:39;;;;;;;7.47;0.90;;;;;;;14.88;59.38;101177.75;5030291;28;20476;-65
2021/01/24 01:43:05;;;;;;;7.07;1.13;;;;;;;14.88;59.56;101175.09;5030679;28;20450;-65
2021/01/24 01:45:30;;;;;;;3.78;0.82;;;;;;;14.86;59.21;101184.81;5030697;28;20045;-65
2021/01/24 01:47:57;;;;;;;6.15;0.93;;;;;;;14.84;59.15;101175.06;5031032;28;20029;-65
2021/01/24 01:50:22;;;;;;;10.18;1.23;;;;;;;14.82;59.51;101161.78;5029724;28;20041;-65
2021/01/24 01:52:48;;;;;;;12.95;1.42;;;;;;;14.81;59.71;101175.94;5029942;28;20511;-65
2021/01/24 01:55:13;;;;;;;4.85;0.75;;;;;;;14.81;59.70;101165.31;5029632;28;20069;-65
2021/01/24 01:57:38;;;;;;;13.23;0.90;;;;;;;14.82;59.42;101175.06;5030031;28;20491;-65
2021/01/24 02:00:04;;;;;;;12.00;1.10;;;;;;;14.81;59.83;101178.59;5045821;28;20084;-65
2021/01/24 02:02:29;;;;;;;4.22;0.80;;;;;;;14.79;59.45;101163.53;5030308;28;20064;-65
2021/01/24 02:04:54;;;;;;;5.82;1.08;;;;;;;14.77;59.79;101162.66;5029415;28;20042;-65
2021/01/24 02:07:20;;;;;;;8.30;1.20;;;;;;;14.75;59.87;101165.28;5027846;28;20046;-65
2021/01/24 02:09:45;;;;;;;7.15;0.93;;;;;;;14.73;59.83;101161.72;5029157;28;20083;-64
2021/01/24 02:12:11;;;;;;;6.60;0.65;;;;;;;14.72;59.72;101157.28;5030394;28;20045;-65
2021/01/24 02:14:36;;;;;;;10.65;1.15;;;;;;;14.73;59.86;101156.41;5029734;28;20057;-65
2021/01/24 02:17:01;;;;;;;5.28;0.80;;;;;;;14.73;59.62;101151.09;5030407;28;20042;-65
2021/01/24 02:19:27;;;;;;;6.68;0.90;;;;;;;14.74;59.67;101164.41;5029849;28;20045;-65
2021/01/24 02:21:52;;;;;;;10.45;1.00;;;;;;;14.75;59.68;101158.22;5030219;28;20181;-65
2021/01/24 02:24:17;;;;;;;8.68;0.75;;;;;;;14.75;59.66;101154.66;5045456;28;20026;-64
2021/01/24 02:26:43;;;;;;;7.13;1.00;;;;;;;14.75;59.36;101170.59;5029536;28;20048;-65
2021/01/24 02:29:08;;;;;;;6.88;0.90;;;;;;;14.76;59.23;101156.44;5030115;28;20552;-65
2021/01/24 02:31:33;;;;;;;8.27;0.70;;;;;;;14.78;59.33;101152.00;5028402;28;20032;-65
2021/01/24 02:33:59;;;;;;;3.53;0.50;;;;;;;14.80;59.73;101144.03;5030292;28;20041;-65
2021/01/24 02:36:24;;;;;;;8.35;0.70;;;;;;;14.80;59.18;101149.34;5029645;28;20068;-65
2021/01/24 02:38:50;;;;;;;5.63;0.75;;;;;;;14.81;59.50;101148.47;5029782;28;20104;-65
2021/01/24 02:41:16;;;;;;;12.68;1.00;;;;;;;14.80;59.47;101147.59;5029550;28;20683;-65
2021/01/24 02:43:41;;;;;;;5.30;0.73;;;;;;;14.80;59.58;101138.72;5029898;28;20056;-65
2021/01/24 02:46:06;;;;;;;4.47;0.82;;;;;;;14.80;59.90;101154.66;5030054;28;20040;-64
2021/01/24 02:48:32;;;;;;;5.90;0.57;;;;;;;14.80;59.64;101136.06;5029449;28;20043;-65
2021/01/24 02:50:57;;;;;;;5.43;0.95;;;;;;;14.81;59.63;101144.06;5030132;28;20029;-65
2021/01/24 02:53:22;;;;;;;3.92;0.68;;;;;;;14.81;59.74;101154.69;5029976;28;20038;-65
2021/01/24 02:55:48;;;;;;;10.10;1.23;;;;;;;14.81;59.78;101149.38;5023684;28;20121;-65
2021/01/24 02:58:13;;;;;;;7.10;0.80;;;;;;;14.79;60.11;101148.47;5031395;28;20441;-65
2021/01/24 03:00:38;;;;;;;8.90;0.80;;;;;;;14.80;59.96;101147.59;5049161;28;20379;-65
2021/01/24 03:03:04;;;;;;;10.68;0.98;;;;;;;14.81;60.09;101164.44;5033531;28;20136;-65
2021/01/24 03:05:29;;;;;;;11.65;0.80;;;;;;;14.82;59.99;101147.59;5033694;28;20099;-65
2021/01/24 03:07:54;;;;;;;8.38;0.70;;;;;;;14.81;60.31;101161.75;5033807;28;20380;-65
2021/01/24 03:10:20;;;;;;;6.07;0.88;;;;;;;14.80;59.96;101152.00;5033268;28;20034;-66
2021/01/24 03:12:45;;;;;;;10.93;0.90;;;;;;;14.79;60.30;101152.88;5033549;28;20057;-65
2021/01/24 03:15:10;;;;;;;12.90;1.02;;;;;;;14.80;60.16;101152.91;5031831;28;20046;-65
2021/01/24 03:17:36;;;;;;;7.57;1.23;;;;;;;14.79;60.06;101145.81;5048798;28;20052;-65
2021/01/24 03:20:01;;;;;;;9.27;0.88;;;;;;;14.77;59.88;101148.44;5032761;28;20406;-65
2021/01/24 03:22:26;;;;;;;6.07;0.80;;;;;;;14.80;60.00;101152.91;5033600;28;20042;-65
2021/01/24 03:24:52;;;;;;;7.20;0.70;;;;;;;14.80;59.78;101162.63;5033621;28;20124;-65
2021/01/24 03:27:17;;;;;;;11.52;0.93;;;;;;;14.77;59.54;101140.47;5033058;28;20046;-64
2021/01/24 03:29:42;;;;;;;6.05;1.30;;;;;;;14.79;59.79;101158.19;5033023;28;20674;-65
2021/01/24 03:32:08;;;;;;;7.07;0.90;;;;;;;14.78;59.25;101144.03;5033559;28;20121;-65
2021/01/24 03:34:33;;;;;;;5.45;0.55;;;;;;;14.80;59.13;101154.66;5032782;28;20042;-65
2021/01/24 03:36:59;;;;;;;5.15;0.90;;;;;;;14.79;59.38;101155.53;5033623;28;20069;-65
2021/01/24 03:39:24;;;;;;;5.20;0.80;;;;;;;14.79;59.29;101152.88;5032804;28;20060;-65
2021/01/24 03:41:49;;;;;;;5.30;0.90;;;;;;;14.78;58.94;101165.28;5031996;28;20072;-65
2021/01/24 03:44:15;;;;;;;7.80;0.98;;;;;;;14.75;58.83;101160.88;5032669;28;20045;-65
2021/01/24 03:46:40;;;;;;;8.15;0.82;;;;;;;14.74;58.97;101159.09;5032586;28;20038;-66
2021/01/24 03:49:06;;;;;;;6.65;0.90;;;;;;;14.73;58.82;101149.31;5032725;28;20045;-65
2021/01/24 03:51:32;;;;;;;8.35;0.80;;;;;;;14.75;59.19;101173.25;5033030;28;20089;-65
2021/01/24 03:53:57;;;;;;;3.03;0.88;;;;;;;14.75;58.48;101170.59;5033122;28;20042;-65
2021/01/24 03:56:22;;;;;;;6.00;1.00;;;;;;;14.75;58.71;101170.59;5030984;28;20038;-65
2021/01/24 03:58:48;;;;;;;8.40;0.93;;;;;;;14.76;58.70;101164.41;5032415;28;20049;-64
2021/01/24 04:01:13;;;;;;;5.55;0.95;;;;;;;14.77;58.97;101168.81;5031066;28;20443;-66
2021/01/24 04:03:38;;;;;;;5.57;1.00;;;;;;;14.79;58.86;101169.72;5031900;28;20065;-65
2021/01/24 04:06:04;;;;;;;16.45;1.08;;;;;;;14.80;58.64;101168.84;5032154;28;20037;-66
2021/01/24 04:08:29;;;;;;;7.97;1.02;;;;;;;14.81;58.48;101173.28;5032414;28;20053;-65
2021/01/24 04:10:55;;;;;;;7.22;1.23;;;;;;;14.83;58.49;101187.50;5031488;28;20064;-65
2021/01/24 04:13:21;;;;;;;12.05;1.10;;;;;;;14.84;58.27;101188.34;5031794;28;20072;-65
2021/01/24 04:15:47;;;;;;;12.70;0.85;;;;;;;14.83;58.22;101183.94;5044411;28;20158;-65
2021/01/24 04:18:12;;;;;;;8.23;1.20;;;;;;;14.82;58.51;101201.66;5032794;28;20041;-65
2021/01/24 04:20:37;;;;;;;10.45;0.98;;;;;;;14.82;58.48;101185.72;5032016;28;20616;-66
2021/01/24 04:23:03;;;;;;;9.40;0.93;;;;;;;14.82;58.34;101180.38;5032210;28;20038;-65
2021/01/24 04:25:28;;;;;;;8.55;1.02;;;;;;;14.81;58.31;101193.66;5039880;28;20118;-65
2021/01/24 04:27:54;;;;;;;13.88;1.45;;;;;;;14.80;58.37;101207.84;5012443;28;20061;-65
2021/01/24 04:30:19;;;;;;;8.60;0.90;;;;;;;14.77;58.43;101212.25;5012017;28;20132;-64
2021/01/24 04:32:44;;;;;;;9.63;1.33;;;;;;;14.77;58.28;101212.25;5011412;28;20037;-65
2021/01/24 04:35:10;;;;;;;7.07;0.90;;;;;;;14.75;58.35;101221.09;5012466;28;20045;-65
2021/01/24 04:37:35;;;;;;;8.35;0.80;;;;;;;14.74;58.47;101225.53;5010432;28;20561;-65
2021/01/24 04:40:00;;;;;;;8.35;1.70;;;;;;;14.73;58.40;101236.13;5012065;28;20088;-65
2021/01/24 04:42:26;;;;;;;8.48;0.88;;;;;;;14.71;58.37;101229.91;5011799;28;20100;-65
2021/01/24 04:44:51;;;;;;;11.18;0.80;;;;;;;14.71;58.08;101224.59;5011302;28;20038;-65
2021/01/24 04:47:17;;;;;;;10.32;0.90;;;;;;;14.70;58.08;101242.31;5012529;28;20030;-65
2021/01/24 04:49:42;;;;;;;9.02;1.00;;;;;;;14.70;58.28;101234.34;5011640;28;20398;-65
2021/01/24 04:52:07;;;;;;;7.45;1.20;;;;;;;14.68;58.36;101237.88;5011585;28;20446;-66
2021/01/24 04:54:33;;;;;;;5.70;1.20;;;;;;;14.69;58.37;101242.31;5011461;28;20049;-65
2021/01/24 04:56:58;;;;;;;5.10;0.82;;;;;;;14.70;58.08;101239.66;5011738;28;20042;-65
2021/01/24 04:59:23;;;;;;;6.28;0.98;;;;;;;14.71;58.36;101240.53;5011724;28;20045;-65
2021/01/24 05:01:49;;;;;;;13.25;1.17;;;;;;;14.74;58.31;101243.25;5012068;28;20406;-65
2021/01/24 05:04:14;;;;;;;5.93;1.15;;;;;;;14.75;58.36;101245.03;5011404;28;20121;-65
2021/01/24 05:06:39;;;;;;;9.32;1.20;;;;;;;14.77;58.13;101248.56;5010816;28;20042;-65
2021/01/24 05:09:05;;;;;;;15.07;1.20;;;;;;;14.79;58.23;101246.81;5011695;28;20029;-65
2021/01/24 05:11:31;;;;;;;15.13;1.27;;;;;;;14.82;57.96;101252.16;5011558;28;20710;-65
2021/01/24 05:13:57;;;;;;;21.77;1.27;;;;;;;14.85;58.31;101245.94;5011314;28;20510;-65
2021/01/24 05:16:23;;;;;;;10.68;1.30;;;;;;;14.89;57.82;101242.44;5010709;28;20065;-65
2021/01/24 05:18:48;;;;;;;10.63;1.40;;;;;;;14.89;58.10;101234.47;5011455;28;20042;-65
2021/01/24 05:21:13;;;;;;;3.03;0.80;;;;;;;14.93;58.08;101242.47;5007088;28;20075;-66
2021/01/24 05:23:39;;;;;;;5.38;0.80;;;;;;;14.97;58.01;101254.00;5011062;28;20049;-66
2021/01/24 05:26:04;;;;;;;15.38;1.33;;;;;;;15.00;57.96;101243.38;5011814;28;20034;-65
2021/01/24 05:28:30;;;;;;;11.82;1.08;;;;;;;15.06;57.59;101262.91;5010914;28;20447;-65
2021/01/24 05:30:55;;;;;;;8.27;0.95;;;;;;;15.07;57.45;101264.72;5011265;28;20038;-65
2021/01/24 05:33:21;;;;;;;13.13;1.20;;;;;;;15.11;57.36;101254.97;5025606;28;20037;-65
2021/01/24 05:35:46;;;;;;;7.75;0.95;;;;;;;15.14;57.19;101262.97;5011640;28;20044;-66
2021/01/24 05:38:11;;;;;;;6.25;1.02;;;;;;;15.20;57.04;101264.75;5010101;28;20049;-65
2021/01/24 05:40:37;;;;;;;3.45;0.82;;;;;;;15.24;57.04;101271.84;5010926;28;20046;-65
2021/01/24 05:43:02;;;;;;;10.80;1.33;;;;;;;15.27;56.94;101287.84;5011478;28;20073;-65
2021/01/24 05:45:27;;;;;;;6.13;0.93;;;;;;;15.32;56.64;101283.44;5010496;28;20049;-65
2021/01/24 05:47:53;;;;;;;9.20;0.95;;;;;;;15.37;56.66;101284.34;5010027;28;20030;-65
2021/01/24 05:50:18;;;;;;;7.55;1.30;;;;;;;15.41;56.35;101288.81;5010529;28;20045;-63
2021/01/24 05:52:43;;;;;;;11.95;1.67;;;;;;;15.45;56.27;101279.94;5041048;28;20062;-65
2021/01/24 05:55:09;;;;;;;10.60;1.27;;;;;;;15.48;56.10;101293.28;5015199;28;20046;-66
2021/01/24 05:57:36;;;;;;;4.97;0.77;;;;;;;15.51;56.00;101293.28;5001058;28;20046;-65
2021/01/24 06:00:02;;;;;;;12.77;1.33;;;;;;;15.53;56.21;101270.25;5010517;28;20049;-65
2021/01/24 06:02:27;;;;;;;6.57;1.10;;;;;;;15.57;56.16;101282.69;5010514;28;20046;-65
2021/01/24 06:04:53;;;;;;;10.60;1.20;;;;;;;15.60;56.21;101273.81;5010534;28;20449;-65
2021/01/24 06:07:19;;;;;;;9.75;1.63;;;;;;;15.64;55.73;101283.59;5010778;28;20046;-64
2021/01/24 06:09:44;;;;;;;7.38;1.30;;;;;;;15.70;55.96;101283.59;5024803;28;20103;-66
2021/01/24 06:12:09;;;;;;;9.35;1.13;;;;;;;15.88;55.52;101297.84;5030522;28;20075;-64
2021/01/24 06:14:35;;;;;;;4.85;0.70;;;;;;;16.25;55.27;101272.19;5029884;28;20053;-65
2021/01/24 06:17:00;;;;;;;11.38;1.80;;;;;;;16.56;55.12;101297.03;5028562;28;20041;-66
2021/01/24 06:19:25;;;;;;;9.32;1.52;;;;;;;16.81;54.80;101286.38;5028740;28;20526;-66
2021/01/24 06:21:51;;;;;;;14.85;4.18;;;;;;;17.02;54.22;101303.25;5029982;28;20102;-67
2021/01/24 06:24:17;;;;;;;10.27;1.50;;;;;;;17.19;53.51;101305.88;5030244;28;20502;-66
2021/01/24 06:26:43;;;;;;;7.57;1.45;;;;;;;17.38;53.27;101290.69;5029759;28;20048;-66
2021/01/24 06:29:08;;;;;;;9.20;1.40;;;;;;;17.54;53.04;101293.28;5021395;28;20673;-66
2021/01/24 06:31:33;;;;;;;9.77;1.67;;;;;;;17.68;53.27;101279.91;5029855;28;20398;-65
2021/01/24 06:33:59;;;;;;;14.77;1.85;;;;;;;17.80;52.46;101287.84;5030040;28;20041;-66
2021/01/24 06:36:25;;;;;;;10.63;1.15;;;;;;;17.91;52.32;101278.00;5026850;28;20128;-66
2021/01/24 06:38:50;;;;;;;12.05;1.65;;;;;;;18.06;52.42;101286.78;5019348;28;20040;-65
2021/01/24 06:41:16;;;;;;;6.47;1.23;;;;;;;18.20;51.88;101285.81;5031071;28;20405;-66
2021/01/24 06:43:41;;;;;;;9.15;1.20;;;;;;;18.32;51.73;101284.81;4782738;28;69758;-65
2021/01/24 06:46:07;;;;;;;12.20;1.30;;;;;;;18.45;51.76;101301.66;5000342;28;20038;-66
2021/01/24 06:48:32;;;;;;;13.00;1.73;;;;;;;18.57;51.26;101288.25;5007528;28;20030;-65
2021/01/24 06:50:57;;;;;;;13.75;1.83;;;;;;;18.69;51.11;101286.34;4990850;28;20033;-65
2021/01/24 06:53:23;;;;;;;10.63;1.30;;;;;;;18.81;50.78;101296.03;5007119;28;20042;-65
2021/01/24 06:55:49;;;;;;;5.38;1.13;;;;;;;18.88;50.93;101296.84;5027962;28;20095;-65
2021/01/24 06:58:14;;;;;;;12.43;1.40;;;;;;;18.95;50.93;101291.44;5008518;28;20030;-65
2021/01/24 07:00:39;;;;;;;8.88;1.92;;;;;;;18.92;50.52;101296.81;5003531;28;20039;-66
2021/01/24 07:03:05;;;;;;;9.30;1.92;;;;;;;18.97;50.68;101296.78;4992927;28;20050;-65
2021/01/24 07:05:30;;;;;;;5.75;1.17;;;;;;;19.01;50.57;101298.50;5009864;28;20046;-66
2021/01/24 07:07:55;;;;;;;10.35;1.75;;;;;;;19.05;50.60;101294.88;5007476;28;20034;-65
2021/01/24 07:10:21;;;;;;;8.32;1.48;;;;;;;19.11;50.33;101311.75;5017980;28;20056;-65
2021/01/24 07:12:46;;;;;;;15.23;1.58;;;;;;;19.15;50.25;101299.25;5005426;28;20038;-65
2021/01/24 07:15:12;;;;;;;14.63;1.58;;;;;;;19.21;50.20;101304.53;5011157;28;20038;-65
2021/01/24 07:17:37;;;;;;;9.60;1.55;;;;;;;19.32;49.72;101332.06;5004133;28;20065;-65
2021/01/24 07:20:02;;;;;;;9.00;1.23;;;;;;;19.41;49.85;101305.19;5008093;28;20121;-65
2021/01/24 07:22:29;;;;;;;14.93;5.05;;;;;;;19.48;49.33;101309.59;5008994;28;20077;-66
2021/01/24 07:24:54;;;;;;;13.70;2.10;;;;;;;19.57;49.35;101321.09;5003246;28;20030;-65
2021/01/24 07:27:19;;;;;;;14.20;1.70;;;;;;;19.62;49.12;101325.50;5002839;28;20496;-65
2021/01/24 07:29:45;;;;;;;13.00;2.20;;;;;;;19.67;49.01;101312.94;4991047;28;20072;-65
2021/01/24 07:32:10;;;;;;;13.30;1.55;;;;;;;19.76;49.20;101322.63;5008296;28;20093;-65
2021/01/24 07:34:36;;;;;;;14.02;2.13;;;;;;;19.84;48.98;101335.03;5005877;28;20139;-65
2021/01/24 07:37:01;;;;;;;17.13;4.20;;;;;;;19.90;48.93;101328.69;5009350;28;20053;-65
2021/01/24 07:39:29;;;;;;;19.25;3.50;;;;;;;19.96;48.64;101341.13;4999877;28;20125;-66
2021/01/24 07:41:54;;;;;;;9.23;3.22;;;;;;;19.99;48.84;101350.03;5011415;28;20141;-65
2021/01/24 07:44:19;;;;;;;8.27;2.08;;;;;;;20.02;48.59;101333.88;5008991;28;20116;-64
2021/01/24 07:46:45;;;;;;;15.07;2.17;;;;;;;20.07;48.53;101356.19;5009258;28;20066;-66
2021/01/24 07:49:10;;;;;;;37.15;2.17;;;;;;;20.14;48.25;101349.81;5011747;28;20461;-66
2021/01/24 07:51:35;;;;;;;9.98;2.78;;;;;;;20.17;48.53;101357.81;5011782;28;20034;-66
2021/01/24 07:54:01;;;;;;;12.30;1.55;;;;;;;20.19;48.42;101331.88;5008973;28;20125;-65
2021/01/24 07:56:26;;;;;;;12.77;2.05;;;;;;;20.19;48.12;101349.75;5011054;28;20034;-64
2021/01/24 07:58:52;;;;;;;18.17;6.53;;;;;;;20.22;48.11;101349.69;5006497;28;20042;-65
2021/01/24 08:01:17;;;;;;;12.00;1.55;;;;;;;20.27;47.97;101335.31;4997910;28;20054;-66
2021/01/24 08:03:42;;;;;;;9.15;1.95;;;;;;;20.30;47.90;101366.56;4996514;28;20074;-65
2021/01/24 08:06:07;;;;;;;14.43;3.70;;;;;;;20.35;48.08;101340.59;5004661;28;20052;-66
2021/01/24 08:08:33;;;;;;;14.88;2.38;;;;;;;20.34;48.04;101349.56;5000247;28;20038;-66
2021/01/24 08:10:58;;;;;;;14.68;2.42;;;;;;;20.35;48.17;101356.66;5007891;28;20053;-71
2021/01/24 08:13:23;;;;;;;18.45;2.13;;;;;;;20.28;48.08;101345.13;5003936;28;20137;-68
2021/01/24 08:15:51;;;;;;;15.43;2.92;;;;;;;20.21;48.26;101347.94;5010226;28;20407;-68
2021/01/24 08:18:16;;;;;;;14.50;2.95;;;;;;;20.19;48.33;101360.47;5009880;28;20128;-68
2021/01/24 08:20:42;;;;;;;8.38;3.30;;;;;;;20.19;48.44;101341.69;5007589;28;20623;-68
2021/01/24 08:23:07;;;;;;;15.23;3.30;;;;;;;20.18;48.38;101351.53;5002749;28;20058;-67
2021/01/24 08:25:32;;;;;;;9.43;2.08;;;;;;;20.19;48.41;101347.94;4980224;28;20458;-67
2021/01/24 08:27:58;;;;;;;12.73;2.50;;;;;;;20.18;48.77;101340.81;4977247;28;20417;-68
2021/01/24 08:30:23;;;;;;;15.20;2.30;;;;;;;20.23;48.63;101335.38;4983124;28;20133;-64
2021/01/24 08:32:49;;;;;;;22.80;1.90;;;;;;;20.30;48.27;101337.06;4991408;28;20043;-65
2021/01/24 08:35:14;;;;;;;27.02;3.72;;;;;;;20.41;48.42;101347.69;4988081;28;20102;-66
2021/01/24 08:37:39;;;;;;;16.33;2.17;;;;;;;20.45;48.45;101352.97;4992895;28;20088;-65
2021/01/24 08:40:05;;;;;;;14.68;3.20;;;;;;;20.49;48.00;101351.97;5005161;28;20042;-64
2021/01/24 08:42:30;;;;;;;13.13;2.55;;;;;;;20.48;48.15;101352.88;5007023;28;20042;-65
2021/01/24 08:44:55;;;;;;;9.02;2.17;;;;;;;20.48;48.35;101342.16;5008329;28;20042;-65
2021/01/24 08:47:21;;;;;;;12.63;1.85;;;;;;;20.53;48.30;101360.88;5006652;28;20623;-65
2021/01/24 08:49:46;;;;;;;14.45;2.60;;;;;;;20.56;48.33;101358.13;4999826;28;20112;-65
2021/01/24 08:52:11;;;;;;;11.88;2.10;;;;;;;20.56;48.22;101367.06;5004547;28;20112;-64
2021/01/24 08:54:37;;;;;;;13.90;2.42;;;;;;;20.55;47.84;101365.31;5005188;28;20069;-64
2021/01/24 08:57:02;;;;;;;12.32;1.77;;;;;;;20.55;48.26;101357.25;5003019;28;20061;-67
2021/01/24 08:59:28;;;;;;;13.25;1.80;;;;;;;20.58;48.39;101348.28;5001163;28;20046;-64
2021/01/24 09:01:53;;;;;;;10.65;1.75;;;;;;;20.60;48.15;101358.09;5003585;28;20486;-64
2021/01/24 09:04:18;;;;;;;13.88;2.50;;;;;;;20.58;48.11;101350.97;5002746;28;20034;-66
2021/01/24 09:06:44;;;;;;;12.23;1.70;;;;;;;20.60;48.28;101344.69;5004533;28;20128;-64
2021/01/24 09:09:09;;;;;;;10.77;2.53;;;;;;;20.60;47.82;101347.34;5005002;28;20120;-62
2021/01/24 09:11:35;;;;;;;9.68;2.08;;;;;;;20.61;48.17;101343.75;5007323;28;20038;-69
2021/01/24 09:14:01;;;;;;;22.63;3.42;;;;;;;20.61;47.90;101342.88;5009529;28;20037;-62
2021/01/24 09:16:26;;;;;;;15.05;2.30;;;;;;;20.62;48.11;101344.63;5010119;28;20056;-63
2021/01/24 09:18:52;;;;;;;12.48;2.80;;;;;;;20.62;48.04;101347.31;5011907;28;20519;-66
2021/01/24 09:21:17;;;;;;;13.00;2.75;;;;;;;20.62;48.09;101347.31;5003398;28;20034;-78
2021/01/24 09:23:42;;;;;;;22.67;3.40;;;;;;;20.63;47.76;101352.66;5002876;28;20076;-65
2021/01/24 09:26:08;;;;;;;18.20;2.40;;;;;;;20.65;48.26;101349.97;5009323;28;20053;-65
2021/01/24 09:28:33;;;;;;;15.95;2.83;;;;;;;20.64;48.66;101337.44;5011051;28;20038;-71
2021/01/24 09:30:58;;;;;;;13.57;2.10;;;;;;;20.61;48.42;101338.38;5010321;28;20049;-71
2021/01/24 09:33:24;;;;;;;14.05;1.77;;;;;;;20.58;48.54;101338.44;5005511;28;20137;-73
2021/01/24 09:35:49;;;;;;;13.50;4.15;;;;;;;20.59;48.63;101321.44;5006019;28;20058;-63
2021/01/24 09:38:14;;;;;;;20.83;3.25;;;;;;;20.62;48.45;101317.78;5010106;28;20042;-67
2021/01/24 09:40:40;;;;;;;20.27;3.03;;;;;;;20.64;48.59;101330.28;5008180;28;20407;-67
2021/01/24 09:43:05;;;;;;;10.77;2.47;;;;;;;20.61;48.66;101330.31;5003945;28;20105;-67
2021/01/24 09:45:30;;;;;;;14.43;2.65;;;;;;;20.62;48.54;101336.56;5009113;28;20521;-68
2021/01/24 09:47:56;;;;;;;11.57;2.65;;;;;;;20.61;48.38;101329.47;5011505;28;20084;-67
2021/01/24 09:50:23;;;;;;;18.40;3.83;;;;;;;20.66;48.46;101339.22;5002954;28;20040;-67
2021/01/24 09:52:48;;;;;;;23.90;3.95;;;;;;;20.66;48.84;101317.75;4979514;28;20138;-66
2021/01/24 09:55:14;;;;;;;18.67;3.20;;;;;;;20.69;48.50;101319.47;5007773;28;20112;-70
2021/01/24 09:57:39;;;;;;;16.60;2.88;;;;;;;20.69;48.68;101317.66;4990994;28;20411;-68
2021/01/24 10:00:05;;;;;;;23.70;3.45;;;;;;;20.69;48.79;101312.31;4982861;28;20653;-67
2021/01/24 10:02:30;;;;;;;18.23;6.85;;;;;;;20.72;48.40;101306.00;4981428;28;20038;-67
2021/01/24 10:04:55;;;;;;;17.25;5.75;;;;;;;20.74;48.74;101300.63;4989096;28;20499;-67
2021/01/24 10:07:21;;;;;;;14.05;5.40;;;;;;;20.86;48.75;101297.72;4983397;28;20073;-66
2021/01/24 10:09:46;;;;;;;23.83;5.07;;;;;;;20.86;48.37;101306.66;4980258;28;20058;-67
2021/01/24 10:12:11;;;;;;;17.95;4.30;;;;;;;20.74;48.83;101295.25;4984045;28;20511;-69
2021/01/24 10:14:37;;;;;;;25.73;6.88;;;;;;;20.59;48.82;101299.97;4988667;28;20081;-70
2021/01/24 10:17:02;;;;;;;19.20;4.35;;;;;;;20.47;49.20;101307.34;4986294;28;20034;-67
2021/01/24 10:19:27;;;;;;;20.27;5.18;;;;;;;20.37;49.58;101306.59;4979933;28;20077;-68
2021/01/24 10:21:53;;;;;;;23.42;3.97;;;;;;;20.44;49.51;101302.00;4990461;28;20041;-67
2021/01/24 10:24:18;;;;;;;15.43;2.83;;;;;;;20.58;49.53;101291.94;4988286;28;20074;-68
2021/01/24 10:26:43;;;;;;;14.40;2.88;;;;;;;20.60;49.59;101280.28;4989939;28;20403;-68
2021/01/24 10:29:09;;;;;;;19.45;2.88;;;;;;;20.46;49.52;101271.56;4988813;28;20130;-68
2021/01/24 10:31:34;;;;;;;15.07;2.47;;;;;;;20.27;49.68;101275.44;4990466;28;20043;-68
2021/01/24 10:34:00;;;;;;;11.55;2.55;;;;;;;20.12;49.84;101264.94;4990618;28;20065;-68
2021/01/24 10:36:25;;;;;;;15.52;2.63;;;;;;;19.99;50.14;101280.34;4990237;28;20062;-68
2021/01/24 10:38:50;;;;;;;20.45;3.13;;;;;;;19.85;50.56;101276.97;4986328;28;20042;-70
2021/01/24 10:41:16;;;;;;;16.52;2.70;;;;;;;19.70;50.53;101274.47;4988560;28;20034;-69
2021/01/24 10:43:41;;;;;;;16.90;3.30;;;;;;;19.55;50.59;101275.59;4989925;28;20030;-69
2021/01/24 10:46:07;;;;;;;26.08;3.33;;;;;;;19.50;50.63;101269.41;4990391;28;20038;-71
2021/01/24 10:48:32;;;;;;;23.05;3.28;;;;;;;19.45;50.89;101260.50;4990210;28;20381;-70
2021/01/24 10:50:57;;;;;;;19.65;3.85;;;;;;;19.52;50.83;101270.28;4988800;28;20034;-69
2021/01/24 10:53:23;;;;;;;18.77;3.97;;;;;;;19.66;50.69;101254.00;4990156;28;20105;-68
2021/01/24 10:55:48;;;;;;;30.58;4.32;;;;;;;19.72;50.76;101249.47;4990250;28;20045;-69
2021/01/24 10:58:13;;;;;;;24.30;4.95;;;;;;;19.71;51.04;101258.41;4989464;28;20607;-68
2021/01/24 11:00:39;;;;;;;26.10;7.63;;;;;;;19.64;51.18;101246.00;4989791;28;20046;-68
2021/01/24 11:03:04;;;;;;;23.15;4.30;;;;;;;19.58;51.50;101248.75;4990189;28;20038;-69
2021/01/24 11:05:30;;;;;;;27.63;8.63;;;;;;;19.53;51.57;101245.25;4990075;28;20050;-69
2021/01/24 11:07:55;;;;;;;23.48;5.78;;;;;;;19.50;51.88;101235.47;4988726;28;20399;-69
2021/01/24 11:10:20;;;;;;;30.80;7.63;;;;;;;19.53;51.60;101239.91;4995309;28;20046;-66
2021/01/24 11:12:46;;;;;;;20.83;5.07;;;;;;;19.65;51.51;101228.13;4998964;28;20050;-66